This is the latest recevied weather packets stored in our database for station/object KD7ECD. If no packets are shown the sender has not sent any weather packets the latest 10 day(s).
| Time | Temp. | Humidity | Pressure | Rain* | Wind** | Luminosity | Snow |
|---|---|---|---|---|---|---|---|
| 1777474373 | 13.33° C | 83% | 1021.5 hPa | 0 mm | - | 167 W/m² | - |
| 1777473774 | 11.67° C | 86% | 1021.3 hPa | 0 mm | - | 137 W/m² | - |
| 1777473171 | 10.56° C | 90% | 1021.2 hPa | 0 mm | - | 108 W/m² | - |
| 1777472570 | 10° C | 92% | 1021 hPa | 0 mm | - | 99 W/m² | - |
| 1777471969 | 8.89° C | 93% | 1021.2 hPa | 0 mm | - | 81 W/m² | - |
| 1777471369 | 7.22° C | 95% | 1021.1 hPa | 0 mm | - | 44 W/m² | - |
| 1777470768 | 6.67° C | 95% | 1021.1 hPa | 0 mm | - | 33 W/m² | - |
| 1777470167 | 6.11° C | 95% | 1021 hPa | 0 mm | - | 24 W/m² | - |
| 1777469565 | 5.56° C | 95% | 1020.9 hPa | 0 mm | - | 14 W/m² | - |
| 1777468960 | 5.56° C | 95% | 1021 hPa | 0 mm | - | 8 W/m² | - |
| 1777468359 | 5.56° C | 95% | 1020.8 hPa | 0 mm | - | 2 W/m² | - |
| 1777467758 | 6.11° C | 95% | 1020.6 hPa | 0 mm | - | 0 W/m² | - |
| 1777467154 | 5.56° C | 95% | 1020.7 hPa | 0 mm | - | 0 W/m² | - |
| 1777466550 | 6.11° C | 95% | 1020.8 hPa | 0 mm | - | 0 W/m² | - |
| 1777465947 | 5.56° C | 95% | 1020.8 hPa | 0 mm | - | 0 W/m² | - |
| 1777465345 | 6.11° C | 95% | 1021.1 hPa | 0 mm | - | 0 W/m² | - |
| 1777464745 | 6.11° C | 95% | 1021.1 hPa | 0 mm | - | 0 W/m² | - |
| 1777464143 | 5.56° C | 95% | 1021.1 hPa | 0 mm | - | 0 W/m² | - |
| 1777463538 | 6.11° C | 95% | 1021.3 hPa | 0 mm | - | 0 W/m² | - |
| 1777462935 | 6.11° C | 95% | 1021.5 hPa | 0 mm | - | 0 W/m² | - |
| 1777462333 | 6.11° C | 95% | 1021.1 hPa | 0 mm | - | 0 W/m² | - |
| 1777461732 | 6.11° C | 94% | 1021.5 hPa | 0 mm | - | 0 W/m² | - |
| 1777461130 | 6.67° C | 94% | 1021.2 hPa | 0 mm | - | 0 W/m² | - |
| 1777460527 | 6.11° C | 94% | 1021.3 hPa | 0 mm | - | 0 W/m² | - |
| 1777459926 | 7.22° C | 94% | 1021.5 hPa | 0 mm | - | 0 W/m² | - |
* Rain latest hour (hover to see other rain measurements)
** Current wind speed in m/s (hover to see current wind gust speed)